Ama Airport


Codes: AMF/AMF
Name: Ama Airport
City:
Country: Papua New Guinea
Elevation: 145 ft.

Photos at Ama Airport


   Photos courtesy of SpottingLog. You can add your own sightings and photos by signing up for a free trial today.



No photos found.

Weather at Ama Airport


Time (UTC)DescriptionTempratureWindCloud coverageVisibilityPressureHumidity
23-May-2024 21:00Light Rain23°C2 mph, W100%10000m1009hPa99%
24-May-2024 00:00Light Rain25°C2 mph, NW99%10000m1010hPa89%
24-May-2024 03:00Light Rain31°C0 mph, SE91%10000m1008hPa64%
24-May-2024 06:00Light Rain29°C4 mph, E79%10000m1006hPa73%
24-May-2024 09:00Light Rain24°C2 mph, NE100%10000m1008hPa97%
24-May-2024 12:00Overcast Clouds24°C2 mph, SE100%10000m1010hPa98%
24-May-2024 15:00Light Rain23°C2 mph, SE91%10000m1010hPa99%
24-May-2024 18:00Light Rain22°C0 mph, SE92%10000m1009hPa100%
24-May-2024 21:00Broken Clouds23°C2 mph, SE54%10000m1010hPa100%
25-May-2024 00:00Broken Clouds28°C2 mph, E58%10000m1011hPa75%
25-May-2024 03:00Broken Clouds32°C4 mph, E82%10000m1008hPa54%
25-May-2024 06:00Broken Clouds32°C4 mph, NE76%10000m1005hPa57%
25-May-2024 09:00Light Rain25°C2 mph, SE100%10000m1008hPa88%
25-May-2024 12:00Light Rain24°C0 mph, SE100%10000m1010hPa96%
25-May-2024 15:00Moderate Rain22°C2 mph, SE97%10000m1010hPa100%
25-May-2024 18:00Light Rain22°C2 mph, N97%0m1009hPa100%
25-May-2024 21:00Overcast Clouds22°C0 mph, S87%6402m1011hPa99%
26-May-2024 00:00Light Rain28°C2 mph, S82%10000m1011hPa74%
26-May-2024 03:00Light Rain32°C2 mph, E75%10000m1008hPa55%
26-May-2024 06:00Light Rain30°C4 mph, NE69%10000m1006hPa69%
26-May-2024 09:00Moderate Rain24°C2 mph, NE100%7245m1008hPa97%
26-May-2024 12:00Moderate Rain23°C2 mph, NW100%10000m1011hPa99%
26-May-2024 15:00Light Rain22°C0 mph, SW100%10000m1010hPa99%
26-May-2024 18:00Light Rain22°C0 mph, SW93%10000m1009hPa99%
26-May-2024 21:00Broken Clouds22°C0 mph, E76%10000m1010hPa100%
27-May-2024 00:00Broken Clouds27°C2 mph, E75%10000m1011hPa81%
27-May-2024 03:00Broken Clouds31°C4 mph, E59%10000m1008hPa57%
27-May-2024 06:00Scattered Clouds31°C4 mph, E45%10000m1006hPa53%
27-May-2024 09:00Scattered Clouds25°C2 mph, S40%10000m1008hPa80%
27-May-2024 12:00Broken Clouds24°C0 mph, S71%10000m1009hPa84%
27-May-2024 15:00Overcast Clouds23°C2 mph, SE100%10000m1008hPa90%
27-May-2024 18:00Overcast Clouds23°C0 mph, S100%10000m1008hPa94%
27-May-2024 21:00Broken Clouds23°C2 mph, SE72%10000m1009hPa96%
28-May-2024 00:00Overcast Clouds28°C2 mph, E86%10000m1010hPa71%
28-May-2024 03:00Broken Clouds32°C2 mph, E72%10000m1007hPa54%
28-May-2024 06:00Broken Clouds31°C4 mph, NE76%10000m1005hPa57%
28-May-2024 09:00Broken Clouds26°C2 mph, E69%10000m1007hPa81%
28-May-2024 12:00Broken Clouds25°C2 mph, SE64%10000m1009hPa86%
28-May-2024 15:00Broken Clouds24°C2 mph, E73%10000m1009hPa91%
28-May-2024 18:00Broken Clouds23°C2 mph, SE82%10000m1008hPa96%